Time;durP1;ratioP1;P1;durP2;ratioP2;P2;SDS_P1;SDS_P2;PMS_P1;PMS_P2;Temp;Humidity;BMP_temperature;BMP_pressure;BME280_temperature;BME280_humidity;BME280_pressure;Samples;Min_cycle;Max_cycle;Signal;HPM_P1;HPM_P2
2021/06/26 00:00:44;;;;;;;;;5.25;5.25;;;;;;;;5000612;28;45576;-75
2021/06/26 00:03:09;;;;;;;;;8.00;6.00;;;;;;;;5001991;28;45493;-76
2021/06/26 00:05:34;;;;;;;;;7.00;6.00;;;;;;;;4998385;28;46878;-74
2021/06/26 00:08:00;;;;;;;;;8.33;5.00;;;;;;;;5000326;28;46111;-76
2021/06/26 00:10:25;;;;;;;;;8.25;6.50;;;;;;;;4998552;28;46408;-76
2021/06/26 00:12:50;;;;;;;;;7.50;6.00;;;;;;;;4999087;28;45536;-75
2021/06/26 00:15:16;;;;;;;;;5.00;5.00;;;;;;;;5001819;28;45421;-76
2021/06/26 00:17:41;;;;;;;;;7.00;6.75;;;;;;;;4999952;28;46339;-74
2021/06/26 00:20:06;;;;;;;;;11.25;7.00;;;;;;;;5000509;28;45623;-75
2021/06/26 00:22:32;;;;;;;;;6.25;6.00;;;;;;;;5014433;28;45719;-75
2021/06/26 00:24:57;;;;;;;;;5.50;5.00;;;;;;;;4998628;28;46030;-74
2021/06/26 00:27:22;;;;;;;;;7.67;6.00;;;;;;;;5001099;28;45936;-75
2021/06/26 00:29:47;;;;;;;;;8.67;7.00;;;;;;;;5013800;28;45845;-75
2021/06/26 00:32:13;;;;;;;;;6.75;6.50;;;;;;;;5033335;28;45552;-75
2021/06/26 00:34:38;;;;;;;;;10.67;7.00;;;;;;;;5016112;28;46309;-76
2021/06/26 00:37:03;;;;;;;;;8.75;7.25;;;;;;;;5007161;28;45763;-74
2021/06/26 00:39:28;;;;;;;;;9.25;8.25;;;;;;;;5012314;28;45756;-75
2021/06/26 00:41:53;;;;;;;;;7.00;6.00;;;;;;;;5007087;28;45579;-75
2021/06/26 00:44:19;;;;;;;;;7.67;7.00;;;;;;;;5005888;28;46150;-75
2021/06/26 00:46:44;;;;;;;;;10.00;8.00;;;;;;;;5011153;28;46020;-75
2021/06/26 00:49:09;;;;;;;;;11.25;8.00;;;;;;;;5021777;28;46454;-75
2021/06/26 00:51:35;;;;;;;;;7.50;7.00;;;;;;;;5035642;28;45607;-76
2021/06/26 00:54:00;;;;;;;;;9.00;7.25;;;;;;;;5012507;28;45486;-74
2021/06/26 00:56:25;;;;;;;;;7.50;7.50;;;;;;;;5030906;28;48322;-78
2021/06/26 00:58:53;;;;;;;;;6.75;6.75;;;;;;;;5006849;28;56842;-78
2021/06/26 01:01:19;;;;;;;;;8.25;6.50;;;;;;;;5009045;28;45541;-78
2021/06/26 01:03:45;;;;;;;;;10.25;7.50;;;;;;;;5033109;28;45569;-78
2021/06/26 01:06:15;;;;;;;;;8.25;7.50;;;;;;;;5016264;28;46369;-78
2021/06/26 01:08:41;;;;;;;;;9.00;7.00;;;;;;;;5007346;28;51800;-79
2021/06/26 01:11:06;;;;;;;;;7.75;7.75;;;;;;;;5013659;28;45557;-78
2021/06/26 01:13:32;;;;;;;;;7.75;7.00;;;;;;;;5014587;28;45607;-77
2021/06/26 01:15:57;;;;;;;;;7.00;7.00;;;;;;;;5030983;28;47950;-78
2021/06/26 01:18:22;;;;;;;;;10.00;7.00;;;;;;;;5020496;28;46175;-77
2021/06/26 01:20:48;;;;;;;;;8.50;7.00;;;;;;;;5011524;28;45579;-78
2021/06/26 01:23:14;;;;;;;;;9.75;8.25;;;;;;;;5018670;28;46311;-79
2021/06/26 01:25:39;;;;;;;;;8.50;7.50;;;;;;;;5015866;28;45526;-78
2021/06/26 01:28:04;;;;;;;;;7.25;7.25;;;;;;;;5012012;28;45539;-78
2021/06/26 01:30:31;;;;;;;;;12.00;9.00;;;;;;;;5011655;28;45530;-78
2021/06/26 01:32:56;;;;;;;;;9.25;8.00;;;;;;;;5021389;28;45496;-78
2021/06/26 01:35:22;;;;;;;;;7.50;6.75;;;;;;;;5008191;28;45590;-78
2021/06/26 01:37:47;;;;;;;;;9.33;9.00;;;;;;;;5014858;28;45619;-77
2021/06/26 01:40:17;;;;;;;;;10.75;8.25;;;;;;;;5017936;28;45681;-79
2021/06/26 01:42:43;;;;;;;;;10.00;7.25;;;;;;;;5007227;28;45316;-78
2021/06/26 01:45:08;;;;;;;;;6.00;6.00;;;;;;;;5017637;28;45462;-78
2021/06/26 01:47:33;;;;;;;;;9.50;6.75;;;;;;;;5015483;28;45925;-77
2021/06/26 01:49:59;;;;;;;;;6.00;5.33;;;;;;;;5006459;28;45469;-81
2021/06/26 01:52:24;;;;;;;;;6.25;6.25;;;;;;;;4975208;28;45630;-79
2021/06/26 01:54:50;;;;;;;;;7.25;5.75;;;;;;;;5011597;28;46202;-78
2021/06/26 01:57:15;;;;;;;;;8.75;6.25;;;;;;;;5012144;28;45300;-78
2021/06/26 01:59:40;;;;;;;;;8.50;6.00;;;;;;;;5009284;28;45296;-77
2021/06/26 02:02:06;;;;;;;;;8.75;6.50;;;;;;;;5016006;28;46123;-78
2021/06/26 02:04:32;;;;;;;;;8.00;8.00;;;;;;;;5003579;28;48150;-78
2021/06/26 02:06:57;;;;;;;;;8.00;7.25;;;;;;;;5011167;28;45444;-78
2021/06/26 02:09:22;;;;;;;;;8.25;6.50;;;;;;;;5021311;28;45501;-78
2021/06/26 02:11:47;;;;;;;;;6.00;6.00;;;;;;;;5005837;28;45536;-79
2021/06/26 02:14:13;;;;;;;;;8.00;6.00;;;;;;;;5012077;28;46397;-78
2021/06/26 02:16:39;;;;;;;;;8.75;7.50;;;;;;;;5010653;28;46132;-78
2021/06/26 02:19:04;;;;;;;;;8.25;7.25;;;;;;;;5013980;28;46372;-78
2021/06/26 02:21:29;;;;;;;;;9.25;8.00;;;;;;;;5012819;28;47654;-77
2021/06/26 02:23:55;;;;;;;;;8.00;7.50;;;;;;;;5004883;28;46198;-78
2021/06/26 02:26:20;;;;;;;;;7.75;7.00;;;;;;;;5014933;28;45953;-78
2021/06/26 02:28:45;;;;;;;;;10.75;6.00;;;;;;;;5018236;28;45537;-78
2021/06/26 02:31:10;;;;;;;;;8.00;7.00;;;;;;;;5007735;28;45684;-78
2021/06/26 02:33:35;;;;;;;;;8.33;7.00;;;;;;;;5023568;28;46237;-78
2021/06/26 02:36:01;;;;;;;;;6.00;6.00;;;;;;;;5011735;28;45505;-78
2021/06/26 02:38:26;;;;;;;;;7.50;6.25;;;;;;;;5007740;28;45509;-79
2021/06/26 02:40:51;;;;;;;;;7.25;7.25;;;;;;;;5011305;28;45611;-78
2021/06/26 02:43:19;;;;;;;;;7.25;7.00;;;;;;;;5013311;28;46227;-78
2021/06/26 02:45:44;;;;;;;;;11.00;9.00;;;;;;;;5013930;28;45581;-77
2021/06/26 02:48:09;;;;;;;;;9.25;7.75;;;;;;;;5015270;28;46206;-79
2021/06/26 02:50:35;;;;;;;;;9.00;8.00;;;;;;;;5011325;28;45526;-78
2021/06/26 02:53:00;;;;;;;;;9.50;8.00;;;;;;;;5018468;28;46057;-78
2021/06/26 02:55:25;;;;;;;;;9.25;9.25;;;;;;;;5011413;28;45910;-75
2021/06/26 02:57:50;;;;;;;;;8.00;7.50;;;;;;;;5008926;28;45586;-75
2021/06/26 03:00:16;;;;;;;;;13.67;10.67;;;;;;;;5016875;28;45586;-75
2021/06/26 03:02:41;;;;;;;;;8.50;8.50;;;;;;;;5010837;28;47429;-74
2021/06/26 03:05:07;;;;;;;;;11.50;9.75;;;;;;;;5018134;28;45478;-75
2021/06/26 03:07:32;;;;;;;;;10.75;10.00;;;;;;;;5003943;28;50553;-75
2021/06/26 03:09:57;;;;;;;;;11.00;8.75;;;;;;;;5015676;28;45735;-75
2021/06/26 03:12:23;;;;;;;;;14.00;9.50;;;;;;;;5022354;28;47416;-76
2021/06/26 03:14:48;;;;;;;;;12.33;10.33;;;;;;;;5007393;28;45843;-75
2021/06/26 03:17:13;;;;;;;;;8.75;8.25;;;;;;;;5009785;28;45501;-76
2021/06/26 03:19:38;;;;;;;;;8.00;8.00;;;;;;;;5019548;28;45827;-74
2021/06/26 03:22:04;;;;;;;;;9.75;8.50;;;;;;;;5011934;28;45567;-74
2021/06/26 03:24:29;;;;;;;;;13.00;11.00;;;;;;;;5015051;28;45374;-75
2021/06/26 03:26:55;;;;;;;;;15.75;10.00;;;;;;;;5005033;28;45688;-74
2021/06/26 03:29:21;;;;;;;;;8.25;8.25;;;;;;;;5014123;28;45660;-75
2021/06/26 03:31:46;;;;;;;;;14.00;11.50;;;;;;;;4994249;28;45574;-75
2021/06/26 03:34:11;;;;;;;;;11.50;11.00;;;;;;;;5005684;28;45565;-74
2021/06/26 03:36:36;;;;;;;;;14.00;11.00;;;;;;;;5017178;28;45449;-74
2021/06/26 03:39:02;;;;;;;;;10.00;8.75;;;;;;;;5009458;28;45622;-75
2021/06/26 03:41:28;;;;;;;;;14.75;11.25;;;;;;;;4993192;28;47902;-75
2021/06/26 03:43:55;;;;;;;;;10.00;8.25;;;;;;;;5008953;28;45597;-75
2021/06/26 03:46:20;;;;;;;;;12.50;11.75;;;;;;;;5007264;28;45593;-75
2021/06/26 03:48:46;;;;;;;;;11.00;9.50;;;;;;;;5012354;28;45471;-75
2021/06/26 03:51:11;;;;;;;;;14.33;10.67;;;;;;;;4986249;28;48331;-74
2021/06/26 03:53:37;;;;;;;;;16.25;11.75;;;;;;;;5006887;28;45512;-74
2021/06/26 03:56:02;;;;;;;;;11.50;9.00;;;;;;;;5013579;28;45493;-77
2021/06/26 03:58:27;;;;;;;;;14.50;11.50;;;;;;;;5013839;28;45587;-78
2021/06/26 04:00:55;;;;;;;;;11.25;11.00;;;;;;;;5012579;28;46704;-77
2021/06/26 04:03:20;;;;;;;;;18.75;12.50;;;;;;;;5011849;28;45593;-77
2021/06/26 04:05:45;;;;;;;;;13.25;9.00;;;;;;;;5007801;28;46507;-77
2021/06/26 04:08:11;;;;;;;;;17.00;11.75;;;;;;;;5006038;28;45522;-77
2021/06/26 04:10:39;;;;;;;;;13.00;12.75;;;;;;;;5016551;28;46338;-77
2021/06/26 04:13:05;;;;;;;;;11.75;10.50;;;;;;;;5017878;28;45750;-77
2021/06/26 04:15:30;;;;;;;;;13.50;11.00;;;;;;;;5023246;28;45870;-77
2021/06/26 04:17:55;;;;;;;;;16.25;11.00;;;;;;;;5011360;28;45467;-77
2021/06/26 04:20:21;;;;;;;;;9.00;9.00;;;;;;;;5014300;28;46236;-77
2021/06/26 04:22:47;;;;;;;;;10.25;10.25;;;;;;;;5015006;28;45529;-77
2021/06/26 04:25:15;;;;;;;;;10.00;10.00;;;;;;;;5011069;28;45556;-77
2021/06/26 04:27:41;;;;;;;;;15.00;10.75;;;;;;;;5018936;28;45597;-77
2021/06/26 04:30:07;;;;;;;;;12.50;10.75;;;;;;;;4998012;28;46784;-77
2021/06/26 04:32:34;;;;;;;;;10.25;8.25;;;;;;;;5015588;28;45600;-77
2021/06/26 04:34:59;;;;;;;;;11.75;8.25;;;;;;;;5012602;28;50119;-77
2021/06/26 04:37:25;;;;;;;;;9.00;9.00;;;;;;;;5011681;28;48613;-78
2021/06/26 04:39:50;;;;;;;;;12.75;8.25;;;;;;;;5016634;28;46386;-78
2021/06/26 04:42:15;;;;;;;;;7.00;7.00;;;;;;;;4999922;28;45626;-78
2021/06/26 04:44:40;;;;;;;;;8.25;7.00;;;;;;;;5017107;28;45956;-77
2021/06/26 04:47:07;;;;;;;;;8.00;7.00;;;;;;;;5021416;28;45567;-77
2021/06/26 04:49:32;;;;;;;;;7.50;5.25;;;;;;;;5011199;28;46227;-77
2021/06/26 04:51:57;;;;;;;;;8.75;7.00;;;;;;;;5014079;28;45532;-78
2021/06/26 04:54:22;;;;;;;;;7.25;6.00;;;;;;;;4999664;28;45590;-77
2021/06/26 04:56:48;;;;;;;;;7.75;5.25;;;;;;;;5010548;28;45332;-78
2021/06/26 04:59:13;;;;;;;;;7.00;7.00;;;;;;;;5016883;28;46002;-77
2021/06/26 05:01:38;;;;;;;;;8.00;6.00;;;;;;;;5012133;28;45553;-77
2021/06/26 05:04:03;;;;;;;;;8.67;7.67;;;;;;;;5011557;28;45494;-77
2021/06/26 05:06:29;;;;;;;;;6.25;6.00;;;;;;;;5010937;28;45830;-78
2021/06/26 05:08:54;;;;;;;;;9.00;7.00;;;;;;;;5008755;28;46555;-77
2021/06/26 05:11:19;;;;;;;;;6.00;5.25;;;;;;;;5009120;28;45879;-77
2021/06/26 05:13:44;;;;;;;;;7.00;7.00;;;;;;;;5016963;28;45696;-77
2021/06/26 05:16:10;;;;;;;;;8.00;7.00;;;;;;;;5018794;28;45418;-77
2021/06/26 05:18:35;;;;;;;;;6.50;5.00;;;;;;;;5017938;28;45747;-77
2021/06/26 05:21:01;;;;;;;;;5.25;5.00;;;;;;;;5013999;28;45641;-78
2021/06/26 05:23:26;;;;;;;;;6.00;5.00;;;;;;;;5015092;28;45734;-77
2021/06/26 05:25:51;;;;;;;;;6.00;6.00;;;;;;;;5021693;28;46535;-79
2021/06/26 05:28:17;;;;;;;;;5.00;5.00;;;;;;;;5013372;28;47237;-78
2021/06/26 05:30:42;;;;;;;;;6.50;5.25;;;;;;;;5020207;28;46157;-77
2021/06/26 05:33:07;;;;;;;;;6.00;5.50;;;;;;;;5011713;28;46211;-78
2021/06/26 05:35:33;;;;;;;;;8.25;6.25;;;;;;;;5016630;28;45808;-77
2021/06/26 05:37:59;;;;;;;;;8.00;5.00;;;;;;;;5010252;28;45624;-77
2021/06/26 05:40:24;;;;;;;;;5.25;5.25;;;;;;;;5008274;28;45588;-78
2021/06/26 05:42:49;;;;;;;;;6.25;4.00;;;;;;;;5008141;28;47309;-77
2021/06/26 05:45:15;;;;;;;;;7.75;6.00;;;;;;;;5016443;28;45739;-78
2021/06/26 05:47:40;;;;;;;;;5.00;5.00;;;;;;;;5012533;28;47439;-77
2021/06/26 05:50:05;;;;;;;;;5.50;5.00;;;;;;;;5015851;28;59200;-79
2021/06/26 05:52:31;;;;;;;;;3.50;3.50;;;;;;;;5006181;28;46249;-78
2021/06/26 05:54:56;;;;;;;;;6.25;5.75;;;;;;;;5017249;28;45807;-78
2021/06/26 05:57:23;;;;;;;;;5.50;5.00;;;;;;;;5023531;28;47375;-75
2021/06/26 05:59:48;;;;;;;;;8.50;5.25;;;;;;;;5006953;28;46442;-75
2021/06/26 06:02:14;;;;;;;;;5.50;5.50;;;;;;;;5008967;28;45328;-76
2021/06/26 06:04:40;;;;;;;;;8.00;4.75;;;;;;;;5014224;28;45750;-74
2021/06/26 06:07:07;;;;;;;;;5.50;4.00;;;;;;;;5013070;28;46711;-76
2021/06/26 06:09:32;;;;;;;;;6.25;4.25;;;;;;;;5015632;28;48007;-74
2021/06/26 06:11:57;;;;;;;;;4.00;3.33;;;;;;;;5005709;28;45509;-74
2021/06/26 06:14:22;;;;;;;;;4.00;4.00;;;;;;;;5005333;28;48021;-74
2021/06/26 06:16:48;;;;;;;;;7.50;5.75;;;;;;;;5015418;28;45668;-75
2021/06/26 06:19:13;;;;;;;;;9.00;5.33;;;;;;;;5011018;28;45849;-74
2021/06/26 06:21:38;;;;;;;;;4.50;4.25;;;;;;;;5010660;28;46509;-74
2021/06/26 06:24:03;;;;;;;;;5.00;5.00;;;;;;;;4974822;28;45774;-74
2021/06/26 06:26:29;;;;;;;;;4.75;4.75;;;;;;;;5007945;28;47491;-74
2021/06/26 06:28:54;;;;;;;;;5.00;5.00;;;;;;;;5023976;28;45433;-75
2021/06/26 06:31:19;;;;;;;;;8.00;5.00;;;;;;;;5008155;28;45572;-75
2021/06/26 06:33:44;;;;;;;;;6.25;5.25;;;;;;;;5008841;28;45484;-76
2021/06/26 06:36:10;;;;;;;;;5.00;5.00;;;;;;;;5011890;28;51503;-75
2021/06/26 06:38:35;;;;;;;;;6.75;6.00;;;;;;;;5008589;28;45444;-74
2021/06/26 06:41:01;;;;;;;;;5.00;5.00;;;;;;;;5010245;28;46745;-75
2021/06/26 06:43:26;;;;;;;;;6.50;4.00;;;;;;;;5008419;28;45873;-75
2021/06/26 06:45:52;;;;;;;;;3.25;3.25;;;;;;;;4999180;28;45533;-75
2021/06/26 06:48:17;;;;;;;;;5.00;4.00;;;;;;;;5002192;28;45625;-74
2021/06/26 06:50:43;;;;;;;;;4.33;4.33;;;;;;;;5000416;28;45567;-75
2021/06/26 06:53:08;;;;;;;;;6.00;4.00;;;;;;;;5000905;28;45456;-75
2021/06/26 06:55:33;;;;;;;;;4.50;4.50;;;;;;;;4999423;28;47397;-74
2021/06/26 06:57:58;;;;;;;;;3.00;3.00;;;;;;;;4998047;28;45668;-75
2021/06/26 07:00:24;;;;;;;;;5.00;5.00;;;;;;;;5002492;28;46194;-75
2021/06/26 07:02:49;;;;;;;;;4.50;4.00;;;;;;;;5001123;28;46268;-75
2021/06/26 07:05:14;;;;;;;;;3.25;3.25;;;;;;;;5005929;28;46004;-76
2021/06/26 07:07:40;;;;;;;;;7.25;6.25;;;;;;;;4999700;28;45541;-75
2021/06/26 07:10:06;;;;;;;;;3.00;3.00;;;;;;;;4998243;28;45722;-74
2021/06/26 07:12:31;;;;;;;;;4.00;4.00;;;;;;;;5004338;28;45708;-75
2021/06/26 07:14:56;;;;;;;;;6.00;5.00;;;;;;;;5016843;28;45911;-75
2021/06/26 07:17:22;;;;;;;;;5.25;5.25;;;;;;;;5010521;28;45559;-75
2021/06/26 07:19:47;;;;;;;;;4.33;4.00;;;;;;;;5015247;28;45593;-75
2021/06/26 07:22:12;;;;;;;;;6.00;5.50;;;;;;;;5003020;28;45524;-75
2021/06/26 07:24:38;;;;;;;;;4.25;4.25;;;;;;;;5007334;28;45580;-77
2021/06/26 07:27:03;;;;;;;;;5.33;5.33;;;;;;;;5010580;28;45592;-77
2021/06/26 07:29:28;;;;;;;;;7.00;5.75;;;;;;;;5009246;28;45880;-76
2021/06/26 07:31:53;;;;;;;;;5.00;5.00;;;;;;;;5021065;28;45515;-78
2021/06/26 07:34:19;;;;;;;;;9.00;6.00;;;;;;;;5004569;28;46266;-77
2021/06/26 07:36:44;;;;;;;;;9.00;6.00;;;;;;;;5009200;28;45856;-78
2021/06/26 07:39:09;;;;;;;;;5.00;4.75;;;;;;;;5006606;28;46527;-77
2021/06/26 07:41:34;;;;;;;;;6.00;6.00;;;;;;;;5004521;28;45727;-77
2021/06/26 07:44:00;;;;;;;;;8.33;7.33;;;;;;;;5017390;28;46132;-77
2021/06/26 07:46:26;;;;;;;;;6.00;6.00;;;;;;;;5014933;28;46620;-77
2021/06/26 07:48:51;;;;;;;;;9.00;6.75;;;;;;;;5011144;28;59665;-77
2021/06/26 07:51:16;;;;;;;;;7.67;6.67;;;;;;;;5012080;28;45565;-77
2021/06/26 07:53:42;;;;;;;;;8.50;7.00;;;;;;;;5011373;28;47015;-77
2021/06/26 07:56:07;;;;;;;;;10.25;7.75;;;;;;;;5015321;28;45526;-80
2021/06/26 07:58:32;;;;;;;;;7.00;6.00;;;;;;;;5007406;28;45464;-80
2021/06/26 08:00:58;;;;;;;;;7.25;6.00;;;;;;;;5004755;28;45597;-80
2021/06/26 08:03:24;;;;;;;;;6.75;6.75;;;;;;;;5017329;28;46899;-80
2021/06/26 08:05:49;;;;;;;;;4.75;4.75;;;;;;;;5015127;28;45534;-80
2021/06/26 08:08:14;;;;;;;;;7.00;6.50;;;;;;;;5010489;28;45453;-80
2021/06/26 08:10:40;;;;;;;;;6.75;6.75;;;;;;;;5012720;28;45816;-79
2021/06/26 08:13:06;;;;;;;;;8.25;7.00;;;;;;;;4996433;28;47953;-78
2021/06/26 08:15:31;;;;;;;;;9.50;7.50;;;;;;;;5011972;28;45844;-77
2021/06/26 08:17:57;;;;;;;;;6.25;6.25;;;;;;;;5003324;28;45592;-78
2021/06/26 08:20:23;;;;;;;;;6.00;5.50;;;;;;;;5000797;28;45571;-78
2021/06/26 08:22:48;;;;;;;;;10.25;8.00;;;;;;;;5002184;28;45367;-79
2021/06/26 08:25:13;;;;;;;;;9.00;7.00;;;;;;;;5018998;22;46754;-78
2021/06/26 08:27:39;;;;;;;;;7.25;7.25;;;;;;;;5019511;28;46361;-77
2021/06/26 08:30:04;;;;;;;;;6.75;5.25;;;;;;;;5010986;28;45763;-77
2021/06/26 08:32:30;;;;;;;;;6.00;6.00;;;;;;;;5013346;28;48177;-77
2021/06/26 08:34:55;;;;;;;;;8.50;7.25;;;;;;;;5013250;28;45589;-78
2021/06/26 08:37:20;;;;;;;;;8.00;6.00;;;;;;;;5014226;28;45522;-77
2021/06/26 08:39:45;;;;;;;;;8.00;7.25;;;;;;;;5012178;28;45498;-78
2021/06/26 08:42:11;;;;;;;;;7.50;7.00;;;;;;;;5012136;28;46091;-78
2021/06/26 08:44:36;;;;;;;;;8.75;7.00;;;;;;;;5009481;28;48058;-78
2021/06/26 08:47:02;;;;;;;;;7.75;7.00;;;;;;;;5019099;28;48210;-78
2021/06/26 08:49:27;;;;;;;;;8.00;7.50;;;;;;;;5006832;28;47736;-78
2021/06/26 08:51:54;;;;;;;;;8.00;8.00;;;;;;;;5005876;28;46152;-77
2021/06/26 08:54:20;;;;;;;;;7.75;6.75;;;;;;;;5021256;28;45477;-78
2021/06/26 08:56:46;;;;;;;;;7.50;6.75;;;;;;;;5013453;28;45547;-75
2021/06/26 08:59:11;;;;;;;;;8.00;8.00;;;;;;;;5013962;28;45493;-74
2021/06/26 09:01:37;;;;;;;;;9.50;7.00;;;;;;;;5014186;28;47824;-74
2021/06/26 09:04:05;;;;;;;;;13.00;9.00;;;;;;;;5007861;28;46057;-75
2021/06/26 09:06:33;;;;;;;;;9.00;9.00;;;;;;;;4991103;28;45544;-75
2021/06/26 09:08:59;;;;;;;;;9.00;8.00;;;;;;;;5002579;28;45507;-75
2021/06/26 09:11:25;;;;;;;;;10.25;8.00;;;;;;;;5010436;28;46705;-75
2021/06/26 09:13:50;;;;;;;;;10.25;9.00;;;;;;;;5021210;28;45436;-75
2021/06/26 09:16:16;;;;;;;;;11.00;8.25;;;;;;;;5013004;28;46565;-74
2021/06/26 09:18:49;;;;;;;;;11.25;9.00;;;;;;;;5018540;28;45492;-75
2021/06/26 09:21:27;;;;;;;;;9.25;9.25;;;;;;;;5022424;28;47411;-75
2021/06/26 09:24:06;;;;;;;;;7.00;7.00;;;;;;;;5010573;28;49338;-75
2021/06/26 09:26:32;;;;;;;;;8.75;7.50;;;;;;;;5013207;28;45663;-75
2021/06/26 09:29:27;;;;;;;;;9.25;9.00;;;;;;;;5015330;28;45498;-74
2021/06/26 09:31:56;;;;;;;;;8.75;8.25;;;;;;;;5003614;28;46321;-75
2021/06/26 09:34:23;;;;;;;;;7.75;7.50;;;;;;;;5013446;28;45453;-76
2021/06/26 09:37:01;;;;;;;;;11.75;10.00;;;;;;;;5018202;28;45637;-74
2021/06/26 09:39:33;;;;;;;;;11.25;9.00;;;;;;;;5016672;28;45369;-75
2021/06/26 09:41:59;;;;;;;;;9.25;7.75;;;;;;;;5015605;28;48050;-74
2021/06/26 09:44:24;;;;;;;;;9.67;9.67;;;;;;;;5010780;28;45497;-75
2021/06/26 09:46:50;;;;;;;;;9.00;8.00;;;;;;;;5016603;28;45524;-75
2021/06/26 09:49:25;;;;;;;;;10.00;9.50;;;;;;;;5010565;28;45851;-75
2021/06/26 09:51:56;;;;;;;;;8.50;7.25;;;;;;;;5011357;28;47323;-75
2021/06/26 09:54:25;;;;;;;;;12.50;8.75;;;;;;;;5022446;28;45923;-75
2021/06/26 09:56:50;;;;;;;;;9.00;7.75;;;;;;;;5005288;28;45609;-78
2021/06/26 09:59:19;;;;;;;;;12.00;10.00;;;;;;;;5013549;28;45524;-78
2021/06/26 10:01:46;;;;;;;;;8.00;8.00;;;;;;;;5023177;28;45472;-78
2021/06/26 10:04:12;;;;;;;;;8.00;6.75;;;;;;;;5006892;28;45413;-77
2021/06/26 10:06:37;;;;;;;;;9.25;8.00;;;;;;;;5014788;28;45442;-78
2021/06/26 10:09:04;;;;;;;;;7.50;7.50;;;;;;;;5014813;28;45486;-77
2021/06/26 10:11:31;;;;;;;;;7.25;7.25;;;;;;;;5014932;28;46413;-78
2021/06/26 10:13:57;;;;;;;;;7.25;5.75;;;;;;;;5021750;28;45585;-77
2021/06/26 10:16:23;;;;;;;;;10.25;7.25;;;;;;;;5018659;28;46627;-78
2021/06/26 10:18:48;;;;;;;;;8.00;8.00;;;;;;;;5013950;28;45299;-78
2021/06/26 10:21:14;;;;;;;;;11.50;8.00;;;;;;;;5011130;22;1173254;-78
2021/06/26 10:23:39;;;;;;;;;7.00;6.00;;;;;;;;5009583;28;45892;-78
2021/06/26 10:26:04;;;;;;;;;9.00;7.25;;;;;;;;5015342;28;45605;-78
2021/06/26 10:28:30;;;;;;;;;9.50;7.25;;;;;;;;5010646;28;45497;-78
2021/06/26 10:31:00;;;;;;;;;8.50;8.50;;;;;;;;5007649;28;46858;-77
2021/06/26 10:33:26;;;;;;;;;11.50;8.75;;;;;;;;4996209;28;45595;-78
2021/06/26 10:35:53;;;;;;;;;9.25;6.25;;;;;;;;5008838;28;45784;-78
2021/06/26 10:38:19;;;;;;;;;8.00;7.00;;;;;;;;5018198;28;45478;-78
2021/06/26 10:40:46;;;;;;;;;8.75;6.25;;;;;;;;5015003;28;45518;-77
2021/06/26 10:43:20;;;;;;;;;6.75;6.75;;;;;;;;5011288;28;47135;-78
2021/06/26 10:45:46;;;;;;;;;7.75;7.00;;;;;;;;5014091;28;45435;-78
2021/06/26 10:48:16;;;;;;;;;7.50;7.50;;;;;;;;5024216;28;45594;-77
2021/06/26 10:50:48;;;;;;;;;11.25;9.50;;;;;;;;5007470;28;47753;-78
2021/06/26 10:53:33;;;;;;;;;9.75;7.00;;;;;;;;5005637;28;46118;-78
2021/06/26 10:55:58;;;;;;;;;8.00;7.50;;;;;;;;5017206;28;45613;-77
2021/06/26 10:58:29;;;;;;;;;10.33;8.00;;;;;;;;5008530;28;46347;-78
2021/06/26 11:00:54;;;;;;;;;7.50;7.50;;;;;;;;5005184;28;48327;-77
2021/06/26 11:03:21;;;;;;;;;7.00;6.75;;;;;;;;5016304;28;45774;-78
2021/06/26 11:05:46;;;;;;;;;7.50;7.50;;;;;;;;5015005;28;46446;-77
2021/06/26 11:08:16;;;;;;;;;7.00;7.00;;;;;;;;4995186;28;45673;-78
2021/06/26 11:10:52;;;;;;;;;10.00;7.00;;;;;;;;5013588;28;45510;-78
2021/06/26 11:13:18;;;;;;;;;11.75;8.00;;;;;;;;5013281;28;45631;-78
2021/06/26 11:15:44;;;;;;;;;8.00;7.00;;;;;;;;5012209;28;45478;-78
2021/06/26 11:18:13;;;;;;;;;12.00;10.00;;;;;;;;5020056;28;47415;-78
2021/06/26 11:20:39;;;;;;;;;11.75;9.00;;;;;;;;5014319;28;46430;-78
2021/06/26 11:23:04;;;;;;;;;8.00;6.00;;;;;;;;5008347;28;45554;-78
2021/06/26 11:25:31;;;;;;;;;8.00;7.50;;;;;;;;5008732;28;45988;-78
2021/06/26 11:28:08;;;;;;;;;10.75;8.75;;;;;;;;5001867;28;45726;-78
2021/06/26 11:30:34;;;;;;;;;7.00;7.00;;;;;;;;5015937;28;45669;-78
2021/06/26 11:33:00;;;;;;;;;9.75;9.75;;;;;;;;5017037;28;47294;-78
2021/06/26 11:35:38;;;;;;;;;10.00;8.50;;;;;;;;5017566;28;45644;-78
2021/06/26 11:38:05;;;;;;;;;10.25;8.75;;;;;;;;5006576;28;46187;-77
2021/06/26 11:40:31;;;;;;;;;11.00;10.00;;;;;;;;5006664;28;45573;-78
2021/06/26 11:42:59;;;;;;;;;9.25;8.75;;;;;;;;5014338;28;45432;-78
2021/06/26 11:45:25;;;;;;;;;9.50;9.00;;;;;;;;5013155;28;45604;-78
2021/06/26 11:48:11;;;;;;;;;14.00;12.25;;;;;;;;4995093;28;45708;-78
2021/06/26 11:50:38;;;;;;;;;11.25;9.50;;;;;;;;5014756;28;45621;-78
2021/06/26 11:53:07;;;;;;;;;13.25;11.25;;;;;;;;5020631;28;45516;-78
2021/06/26 11:55:38;;;;;;;;;9.75;9.25;;;;;;;;5007520;28;46642;-78
2021/06/26 11:58:04;;;;;;;;;11.75;10.00;;;;;;;;5016820;28;45592;-80
2021/06/26 12:00:29;;;;;;;;;8.25;8.00;;;;;;;;5015624;28;45544;-78
2021/06/26 12:02:54;;;;;;;;;11.50;10.50;;;;;;;;5012139;28;45501;-78
2021/06/26 12:05:20;;;;;;;;;10.50;9.00;;;;;;;;5021432;28;45581;-79
2021/06/26 12:07:45;;;;;;;;;12.00;9.75;;;;;;;;5020941;28;45644;-78
2021/06/26 12:10:12;;;;;;;;;11.67;10.33;;;;;;;;5012706;28;45557;-78
2021/06/26 12:12:37;;;;;;;;;13.00;11.25;;;;;;;;5012937;28;46009;-78
2021/06/26 12:15:14;;;;;;;;;12.00;11.75;;;;;;;;5014294;28;45473;-78
2021/06/26 12:17:40;;;;;;;;;13.00;11.25;;;;;;;;5014828;28;45630;-78
2021/06/26 12:20:11;;;;;;;;;10.75;10.75;;;;;;;;5014661;28;46428;-78
2021/06/26 12:22:36;;;;;;;;;11.00;10.00;;;;;;;;5007079;28;45665;-77
2021/06/26 12:25:04;;;;;;;;;14.25;12.25;;;;;;;;5007072;28;49012;-78
2021/06/26 12:27:30;;;;;;;;;11.75;11.25;;;;;;;;5022310;28;45906;-78
2021/06/26 12:29:55;;;;;;;;;19.25;14.50;;;;;;;;4998876;28;45934;-77
2021/06/26 12:32:30;;;;;;;;;12.00;10.25;;;;;;;;5005715;28;45553;-80
2021/06/26 12:34:56;;;;;;;;;14.00;10.75;;;;;;;;5016523;28;51600;-80
2021/06/26 12:37:28;;;;;;;;;14.50;10.75;;;;;;;;5003659;28;45613;-79
2021/06/26 12:40:10;;;;;;;;;12.75;11.00;;;;;;;;5011137;28;47717;-79
2021/06/26 12:42:55;;;;;;;;;14.00;12.00;;;;;;;;5015567;28;45666;-80
2021/06/26 12:45:28;;;;;;;;;17.75;13.25;;;;;;;;5013053;28;45945;-80
2021/06/26 12:48:07;;;;;;;;;12.25;11.25;;;;;;;;5002327;28;45684;-80
2021/06/26 12:50:35;;;;;;;;;13.50;12.50;;;;;;;;5015170;28;46115;-79
2021/06/26 12:53:00;;;;;;;;;11.50;11.50;;;;;;;;5021700;28;45535;-80
2021/06/26 12:55:26;;;;;;;;;12.25;11.25;;;;;;;;5004830;28;52634;-79
2021/06/26 12:57:52;;;;;;;;;12.75;11.75;;;;;;;;5012218;28;45511;-80
2021/06/26 13:00:21;;;;;;;;;22.00;16.00;;;;;;;;5023063;28;46567;-78
2021/06/26 13:02:47;;;;;;;;;12.25;12.00;;;;;;;;5004719;28;46101;-78
2021/06/26 13:05:31;;;;;;;;;13.00;12.00;;;;;;;;5017605;28;46921;-78
2021/06/26 13:08:03;;;;;;;;;13.00;12.25;;;;;;;;5023895;28;45588;-78
2021/06/26 13:10:29;;;;;;;;;14.75;13.25;;;;;;;;5009058;28;46161;-78
2021/06/26 13:12:54;;;;;;;;;13.75;11.25;;;;;;;;4991209;28;45733;-78
2021/06/26 13:15:20;;;;;;;;;12.00;12.00;;;;;;;;5007271;28;45586;-78
2021/06/26 13:17:46;;;;;;;;;11.75;9.00;;;;;;;;5011796;28;45438;-78
2021/06/26 13:20:11;;;;;;;;;10.50;10.50;;;;;;;;5014225;28;46765;-78
2021/06/26 13:22:40;;;;;;;;;17.75;12.75;;;;;;;;5016521;28;45430;-78
2021/06/26 13:25:07;;;;;;;;;13.50;11.50;;;;;;;;5011569;28;45597;-78
2021/06/26 13:27:32;;;;;;;;;13.00;13.00;;;;;;;;5016440;28;45786;-78
2021/06/26 13:29:57;;;;;;;;;10.00;9.25;;;;;;;;5017005;28;47308;-78
2021/06/26 13:32:23;;;;;;;;;11.75;11.75;;;;;;;;5017837;28;45475;-77
2021/06/26 13:34:48;;;;;;;;;10.00;10.00;;;;;;;;5022762;28;45655;-77
2021/06/26 13:37:13;;;;;;;;;11.33;11.00;;;;;;;;5012441;28;45596;-78
2021/06/26 13:39:40;;;;;;;;;8.50;8.50;;;;;;;;5019182;22;45574;-78
2021/06/26 13:42:05;;;;;;;;;8.00;7.50;;;;;;;;4967124;28;45561;-78
2021/06/26 13:44:31;;;;;;;;;9.00;9.00;;;;;;;;4971901;28;45527;-78
2021/06/26 13:46:57;;;;;;;;;10.00;9.00;;;;;;;;4969271;28;54612;-78
2021/06/26 13:49:22;;;;;;;;;8.25;8.00;;;;;;;;4967217;28;45855;-78
2021/06/26 13:51:47;;;;;;;;;13.50;9.25;;;;;;;;4969725;28;46337;-78
2021/06/26 13:54:12;;;;;;;;;7.50;7.50;;;;;;;;4980639;28;45537;-78
2021/06/26 13:56:38;;;;;;;;;9.25;8.25;;;;;;;;4974815;28;45871;-77
2021/06/26 13:59:04;;;;;;;;;9.00;7.50;;;;;;;;4978523;28;45492;-77
2021/06/26 14:01:30;;;;;;;;;12.00;9.25;;;;;;;;4973534;28;45554;-77
2021/06/26 14:03:55;;;;;;;;;11.00;8.75;;;;;;;;4966654;28;45750;-78
2021/06/26 14:06:20;;;;;;;;;11.00;9.00;;;;;;;;4957174;28;45781;-79
2021/06/26 14:08:46;;;;;;;;;11.50;8.75;;;;;;;;4976525;28;47028;-78
2021/06/26 14:11:11;;;;;;;;;11.00;7.75;;;;;;;;4975754;28;45443;-78
2021/06/26 14:13:37;;;;;;;;;10.25;9.50;;;;;;;;4975195;28;48182;-77
2021/06/26 14:16:02;;;;;;;;;12.50;10.75;;;;;;;;4975730;28;45574;-77
2021/06/26 14:18:27;;;;;;;;;10.00;8.25;;;;;;;;4970483;28;47058;-79
2021/06/26 14:20:53;;;;;;;;;9.75;9.25;;;;;;;;4969271;28;45546;-77
2021/06/26 14:23:18;;;;;;;;;8.00;8.00;;;;;;;;4977142;28;45547;-78
2021/06/26 14:25:43;;;;;;;;;8.75;8.75;;;;;;;;4976251;28;45570;-77
2021/06/26 14:28:09;;;;;;;;;8.75;7.75;;;;;;;;4969911;28;47505;-78
2021/06/26 14:30:34;;;;;;;;;11.00;10.50;;;;;;;;4977065;28;45676;-78